Time;durP1;ratioP1;P1;durP2;ratioP2;P2;SDS_P1;SDS_P2;PMS_P1;PMS_P2;Temp;Humidity;BMP_temperature;BMP_pressure;BME280_temperature;BME280_humidity;BME280_pressure;Samples;Min_cycle;Max_cycle;Signal;HPM_P1;HPM_P2
2021/07/06 00:00:47;;;;;;;0.93;0.70;;;19.70;84.10;;;;;;4939768;29;20468;-78
2021/07/06 00:03:13;;;;;;;1.77;0.68;;;19.70;84.30;;;;;;4939084;29;20027;-78
2021/07/06 00:05:38;;;;;;;0.90;0.70;;;19.60;84.30;;;;;;4956330;29;20476;-77
2021/07/06 00:08:04;;;;;;;1.98;0.68;;;19.60;84.50;;;;;;4956174;29;20030;-78
2021/07/06 00:10:30;;;;;;;1.75;0.60;;;19.60;84.50;;;;;;4956208;29;20032;-80
2021/07/06 00:12:56;;;;;;;2.03;0.80;;;19.60;84.50;;;;;;4956657;29;20031;-80
2021/07/06 00:15:23;;;;;;;1.98;0.60;;;19.60;84.50;;;;;;4939027;29;20027;-80
2021/07/06 00:17:59;;;;;;;2.00;0.90;;;19.60;84.60;;;;;;4955928;29;20035;-80
2021/07/06 00:20:26;;;;;;;1.77;0.65;;;19.60;84.90;;;;;;4939077;29;20034;-80
2021/07/06 00:22:56;;;;;;;2.08;0.70;;;19.50;84.90;;;;;;4939047;29;20035;-80
2021/07/06 00:25:22;;;;;;;1.10;0.65;;;19.40;85.20;;;;;;4955741;29;20023;-77
2021/07/06 00:27:48;;;;;;;1.42;0.52;;;19.40;85.40;;;;;;4956181;29;20031;-78
2021/07/06 00:30:14;;;;;;;1.40;0.70;;;19.40;85.70;;;;;;4939254;29;20524;-80
2021/07/06 00:32:40;;;;;;;1.13;0.50;;;19.40;85.60;;;;;;4956216;29;20031;-80
2021/07/06 00:35:07;;;;;;;2.28;0.80;;;19.30;85.80;;;;;;4938794;29;20058;-79
2021/07/06 00:37:33;;;;;;;0.77;0.77;;;19.30;86.00;;;;;;4955046;29;20023;-79
2021/07/06 00:39:59;;;;;;;3.15;1.40;;;19.20;86.10;;;;;;4938984;29;20043;-80
2021/07/06 00:42:25;;;;;;;2.38;0.60;;;19.20;86.40;;;;;;4938398;29;20110;-80
2021/07/06 00:44:53;;;;;;;1.50;0.50;;;19.30;86.70;;;;;;4938570;29;20059;-80
2021/07/06 00:47:30;;;;;;;1.33;0.80;;;19.30;86.50;;;;;;4955657;29;20024;-80
2021/07/06 00:49:56;;;;;;;1.85;0.80;;;19.30;86.60;;;;;;4938992;29;20362;-80
2021/07/06 00:52:21;;;;;;;0.73;0.73;;;19.20;86.80;;;;;;4938662;29;20028;-80
2021/07/06 00:54:47;;;;;;;1.77;0.70;;;19.20;86.90;;;;;;4938716;29;20066;-79
2021/07/06 00:57:12;;;;;;;1.02;0.60;;;19.20;86.80;;;;;;4954952;28;20035;-80
2021/07/06 00:59:38;;;;;;;4.10;0.65;;;19.10;87.10;;;;;;4937729;29;20125;-80
2021/07/06 01:02:04;;;;;;;0.85;0.65;;;19.10;87.60;;;;;;4938754;29;20384;-80
2021/07/06 01:04:29;;;;;;;3.72;0.80;;;19.00;87.80;;;;;;4955260;29;20031;-80
2021/07/06 01:06:55;;;;;;;1.65;0.80;;;19.00;87.90;;;;;;4938422;29;20031;-80
2021/07/06 01:09:20;;;;;;;1.08;0.70;;;18.90;88.00;;;;;;4938158;29;20468;-80
2021/07/06 01:11:47;;;;;;;0.80;0.60;;;18.90;88.40;;;;;;4955612;29;20035;-79
2021/07/06 01:14:17;;;;;;;2.38;0.80;;;18.90;88.60;;;;;;4955644;29;20063;-77
2021/07/06 01:16:46;;;;;;;2.25;0.70;;;18.90;88.30;;;;;;4955363;29;20042;-77
2021/07/06 01:19:14;;;;;;;1.45;1.33;;;18.90;88.30;;;;;;4937933;29;20027;-77
2021/07/06 01:21:42;;;;;;;1.42;0.73;;;18.90;88.20;;;;;;4954690;29;20030;-77
2021/07/06 01:24:07;;;;;;;1.52;0.60;;;18.90;88.20;;;;;;4938119;29;20031;-77
2021/07/06 01:26:33;;;;;;;1.55;0.60;;;19.00;87.90;;;;;;4937752;29;20035;-78
2021/07/06 01:28:58;;;;;;;0.82;0.60;;;19.00;87.40;;;;;;4937697;29;20480;-77
2021/07/06 01:31:24;;;;;;;1.02;0.60;;;19.00;87.50;;;;;;4937764;29;20038;-77
2021/07/06 01:33:50;;;;;;;1.48;0.65;;;18.90;88.00;;;;;;4938157;29;20122;-77
2021/07/06 01:36:18;;;;;;;2.83;0.55;;;18.90;88.30;;;;;;4938236;29;20392;-77
2021/07/06 01:38:44;;;;;;;2.30;0.70;;;18.80;88.20;;;;;;4955409;29;20026;-77
2021/07/06 01:41:10;;;;;;;1.92;0.60;;;18.80;88.40;;;;;;4938089;29;20027;-77
2021/07/06 01:43:36;;;;;;;1.30;0.68;;;18.80;88.40;;;;;;4954793;29;20086;-77
2021/07/06 01:46:03;;;;;;;1.92;0.63;;;18.70;88.90;;;;;;4954898;29;20019;-77
2021/07/06 01:48:29;;;;;;;2.95;0.80;;;18.70;88.90;;;;;;4954331;29;20027;-77
2021/07/06 01:50:55;;;;;;;1.42;0.57;;;18.80;88.70;;;;;;4937960;29;20066;-77
2021/07/06 01:53:22;;;;;;;2.10;0.55;;;18.70;88.80;;;;;;4937263;29;20031;-77
2021/07/06 01:55:50;;;;;;;3.08;0.63;;;18.70;88.90;;;;;;4937384;29;20032;-77
2021/07/06 01:58:18;;;;;;;1.38;0.50;;;18.60;89.00;;;;;;4937284;29;20079;-77
2021/07/06 02:00:47;;;;;;;2.70;0.70;;;18.60;89.20;;;;;;4954453;29;20460;-77
2021/07/06 02:03:13;;;;;;;2.10;0.60;;;18.50;89.30;;;;;;4937712;29;20117;-77
2021/07/06 02:05:40;;;;;;;0.73;0.55;;;18.50;89.50;;;;;;4947922;29;20079;-77
2021/07/06 02:08:09;;;;;;;2.38;0.70;;;18.60;89.40;;;;;;4937690;29;20038;-77
2021/07/06 02:10:35;;;;;;;0.73;0.60;;;18.60;89.00;;;;;;4922240;29;20027;-77
2021/07/06 02:13:02;;;;;;;0.98;0.60;;;18.50;89.10;;;;;;4922570;29;20166;-77
2021/07/06 02:15:29;;;;;;;3.13;0.60;;;18.50;89.40;;;;;;4938895;29;20058;-76
2021/07/06 02:17:55;;;;;;;1.10;0.60;;;18.40;89.40;;;;;;4939265;29;20028;-77
2021/07/06 02:20:22;;;;;;;1.80;1.27;;;18.40;89.70;;;;;;4938733;29;20457;-77
2021/07/06 02:22:48;;;;;;;3.53;1.05;;;18.30;90.00;;;;;;4939583;29;20035;-77
2021/07/06 02:25:16;;;;;;;1.65;0.80;;;18.30;90.10;;;;;;4922479;29;20134;-77
2021/07/06 02:27:45;;;;;;;2.17;0.85;;;18.30;90.10;;;;;;4938909;29;20023;-77
2021/07/06 02:30:12;;;;;;;4.18;0.93;;;18.30;90.20;;;;;;4922046;29;20035;-77
2021/07/06 02:32:38;;;;;;;2.10;0.70;;;18.20;90.10;;;;;;4921805;29;20032;-77
2021/07/06 02:35:09;;;;;;;2.42;1.02;;;18.30;90.10;;;;;;4940785;29;20043;-78
2021/07/06 02:37:35;;;;;;;2.25;0.90;;;18.30;90.00;;;;;;4958167;29;20023;-77
2021/07/06 02:40:03;;;;;;;1.65;0.60;;;18.40;90.00;;;;;;4941386;29;20027;-77
2021/07/06 02:42:29;;;;;;;2.75;1.00;;;18.40;90.00;;;;;;4958030;29;20538;-77
2021/07/06 02:44:55;;;;;;;2.17;1.02;;;18.40;89.90;;;;;;4940801;29;20061;-77
2021/07/06 02:47:20;;;;;;;2.83;0.90;;;18.40;89.80;;;;;;4941217;29;20070;-77
2021/07/06 02:49:46;;;;;;;0.93;0.70;;;18.40;90.00;;;;;;4940597;29;20079;-78
2021/07/06 02:52:13;;;;;;;2.17;0.90;;;18.40;90.00;;;;;;4958116;29;20107;-77
2021/07/06 02:54:39;;;;;;;0.95;0.73;;;18.50;89.70;;;;;;4940081;29;20031;-77
2021/07/06 02:57:08;;;;;;;0.93;0.85;;;18.50;89.50;;;;;;4958412;29;20472;-77
2021/07/06 02:59:34;;;;;;;1.08;0.80;;;18.50;89.50;;;;;;4956714;28;20047;-77
2021/07/06 03:01:59;;;;;;;1.20;0.70;;;18.50;89.70;;;;;;4957835;29;20067;-77
2021/07/06 03:04:25;;;;;;;1.30;0.70;;;18.50;89.80;;;;;;4957656;29;20384;-77
2021/07/06 03:06:51;;;;;;;3.33;0.95;;;18.50;89.60;;;;;;4957669;29;20027;-77
2021/07/06 03:09:16;;;;;;;1.20;0.80;;;18.40;89.90;;;;;;4940716;29;20031;-77
2021/07/06 03:11:44;;;;;;;0.90;0.80;;;18.40;89.80;;;;;;4957673;29;20100;-78
2021/07/06 03:14:10;;;;;;;1.08;0.80;;;18.40;89.90;;;;;;4940876;29;20035;-81
2021/07/06 03:16:35;;;;;;;2.63;0.90;;;18.40;90.00;;;;;;4940146;29;20035;-80
2021/07/06 03:19:01;;;;;;;2.40;0.55;;;18.30;90.10;;;;;;4956603;28;20027;-80
2021/07/06 03:21:26;;;;;;;4.30;0.85;;;18.20;90.20;;;;;;4939498;29;20476;-80
2021/07/06 03:23:52;;;;;;;1.13;0.70;;;18.20;90.40;;;;;;4957148;29;20035;-80
2021/07/06 03:26:18;;;;;;;3.83;0.80;;;18.10;90.50;;;;;;4940584;29;20473;-80
2021/07/06 03:28:43;;;;;;;1.95;0.80;;;18.00;90.70;;;;;;4957112;29;20042;-79
2021/07/06 03:31:09;;;;;;;1.65;0.80;;;18.10;90.80;;;;;;4957149;29;20373;-80
2021/07/06 03:33:35;;;;;;;2.97;0.70;;;18.00;90.90;;;;;;4939960;29;20027;-79
2021/07/06 03:36:00;;;;;;;3.10;0.88;;;17.90;90.90;;;;;;4940405;29;20396;-80
2021/07/06 03:38:26;;;;;;;2.75;0.90;;;17.90;90.90;;;;;;4957131;29;20110;-80
2021/07/06 03:40:51;;;;;;;2.55;0.82;;;17.90;91.00;;;;;;4964167;28;20094;-80
2021/07/06 03:43:17;;;;;;;1.70;0.73;;;18.10;90.80;;;;;;4959480;28;20038;-80
2021/07/06 03:45:43;;;;;;;1.50;0.80;;;18.10;90.80;;;;;;4958708;28;20456;-80
2021/07/06 03:48:08;;;;;;;2.28;0.93;;;18.10;90.70;;;;;;4959233;28;20089;-80
2021/07/06 03:50:34;;;;;;;1.35;0.90;;;18.00;90.80;;;;;;4958352;28;20074;-80
2021/07/06 03:53:00;;;;;;;0.90;0.57;;;17.90;91.10;;;;;;4959156;28;20035;-80
2021/07/06 03:55:27;;;;;;;1.08;0.70;;;17.80;91.30;;;;;;4976182;28;20031;-79
2021/07/06 03:57:53;;;;;;;2.30;1.00;;;17.90;91.30;;;;;;4959303;28;20027;-80
2021/07/06 04:00:28;;;;;;;0.90;0.70;;;17.90;91.20;;;;;;4956668;28;20202;-80
2021/07/06 04:02:54;;;;;;;2.72;0.90;;;18.00;91.20;;;;;;4920476;29;20036;-79
2021/07/06 04:05:20;;;;;;;1.35;1.10;;;18.00;91.20;;;;;;4941285;29;20087;-79
2021/07/06 04:07:46;;;;;;;1.85;1.10;;;17.90;91.20;;;;;;4956283;29;20377;-79
2021/07/06 04:10:16;;;;;;;2.80;0.90;;;17.90;91.20;;;;;;4956733;29;20031;-80
2021/07/06 04:12:42;;;;;;;1.90;1.02;;;17.80;91.30;;;;;;4939296;29;20035;-80
2021/07/06 04:15:11;;;;;;;3.70;0.90;;;17.80;91.50;;;;;;4939609;29;20035;-81
2021/07/06 04:17:37;;;;;;;0.95;0.80;;;17.70;91.60;;;;;;4939335;29;20157;-80
2021/07/06 04:20:06;;;;;;;0.95;0.80;;;17.70;91.70;;;;;;4956517;29;20435;-80
2021/07/06 04:22:32;;;;;;;1.00;0.90;;;17.80;91.70;;;;;;4936672;29;20032;-80
2021/07/06 04:24:58;;;;;;;1.13;0.70;;;17.80;91.60;;;;;;4935894;29;20028;-79
2021/07/06 04:27:23;;;;;;;3.03;0.90;;;17.90;91.50;;;;;;4936025;29;20461;-80
2021/07/06 04:29:49;;;;;;;3.33;0.90;;;18.00;91.30;;;;;;4935651;29;20038;-80
2021/07/06 04:32:16;;;;;;;1.60;0.85;;;18.10;91.10;;;;;;4938766;29;20087;-80
2021/07/06 04:34:49;;;;;;;1.73;0.93;;;18.10;90.90;;;;;;4938485;29;20067;-80
2021/07/06 04:37:15;;;;;;;2.35;0.73;;;18.30;90.70;;;;;;4938736;29;20549;-80
2021/07/06 04:39:41;;;;;;;1.90;0.90;;;18.40;90.60;;;;;;4956010;29;20523;-80
2021/07/06 04:42:08;;;;;;;7.13;1.25;;;18.40;90.40;;;;;;4938502;29;20039;-79
2021/07/06 04:44:33;;;;;;;4.00;0.93;;;18.40;90.50;;;;;;4938566;29;20437;-80
2021/07/06 04:46:59;;;;;;;2.33;0.85;;;18.50;90.40;;;;;;4939018;29;20096;-76
2021/07/06 04:49:27;;;;;;;1.70;0.88;;;18.30;90.50;;;;;;4955868;29;20395;-77
2021/07/06 04:51:53;;;;;;;1.50;1.10;;;18.30;90.80;;;;;;4956033;29;20043;-77
2021/07/06 04:54:23;;;;;;;3.05;0.93;;;18.30;90.90;;;;;;4938790;29;20090;-77
2021/07/06 04:56:52;;;;;;;3.78;1.20;;;18.30;90.90;;;;;;4955240;29;20477;-77
2021/07/06 04:59:18;;;;;;;1.55;0.90;;;18.30;90.90;;;;;;4938585;29;20078;-77
2021/07/06 05:01:45;;;;;;;2.88;1.00;;;18.40;90.90;;;;;;4955056;29;20035;-77
2021/07/06 05:04:11;;;;;;;3.00;0.90;;;18.40;91.00;;;;;;4938633;29;20136;-80
2021/07/06 05:06:37;;;;;;;1.70;0.98;;;18.50;90.80;;;;;;4938120;29;20023;-80
2021/07/06 05:09:02;;;;;;;3.20;0.93;;;18.60;90.70;;;;;;4938799;29;20031;-80
2021/07/06 05:11:28;;;;;;;2.75;0.88;;;18.60;90.70;;;;;;4955583;29;20096;-80
2021/07/06 05:13:53;;;;;;;3.42;0.98;;;18.70;90.60;;;;;;4938103;29;20433;-80
2021/07/06 05:16:19;;;;;;;1.88;0.90;;;18.70;90.60;;;;;;4955521;29;20425;-80
2021/07/06 05:18:45;;;;;;;2.35;0.88;;;18.70;90.50;;;;;;4955405;29;20027;-79
2021/07/06 05:21:10;;;;;;;2.90;0.80;;;18.80;90.40;;;;;;4955496;29;20027;-80
2021/07/06 05:23:36;;;;;;;0.98;0.80;;;19.00;90.40;;;;;;4938173;29;20086;-80
2021/07/06 05:26:02;;;;;;;2.33;1.10;;;19.00;90.70;;;;;;4955794;29;20031;-80
2021/07/06 05:28:28;;;;;;;1.10;0.85;;;19.10;90.90;;;;;;4938458;29;20031;-80
2021/07/06 05:30:54;;;;;;;5.28;1.00;;;19.20;90.60;;;;;;4937479;29;20078;-80
2021/07/06 05:33:20;;;;;;;2.17;1.10;;;19.30;90.30;;;;;;4937941;29;20432;-80
2021/07/06 05:35:47;;;;;;;4.07;1.30;;;19.30;90.40;;;;;;4937664;29;20366;-80
2021/07/06 05:38:12;;;;;;;4.05;1.08;;;19.30;90.50;;;;;;4955022;29;20054;-80
2021/07/06 05:40:39;;;;;;;7.50;1.55;;;19.30;90.70;;;;;;4954632;29;20059;-80
2021/07/06 05:43:06;;;;;;;2.20;1.25;;;19.30;90.90;;;;;;4937524;29;20035;-81
2021/07/06 05:45:36;;;;;;;3.00;1.20;;;19.40;90.90;;;;;;4954772;29;20027;-80
2021/07/06 05:48:03;;;;;;;7.22;1.42;;;19.50;90.70;;;;;;4937592;29;20027;-80
2021/07/06 05:50:30;;;;;;;5.05;1.30;;;19.50;91.00;;;;;;4937733;29;20124;-80
2021/07/06 05:52:55;;;;;;;6.32;1.30;;;19.50;90.70;;;;;;4937157;29;20043;-77
2021/07/06 05:55:21;;;;;;;4.88;1.08;;;19.50;90.70;;;;;;4954446;29;20031;-77
2021/07/06 05:57:47;;;;;;;4.13;1.20;;;19.50;90.80;;;;;;4951772;29;20034;-77
2021/07/06 06:00:15;;;;;;;2.75;1.02;;;19.60;90.40;;;;;;4954819;29;20043;-77
2021/07/06 06:02:41;;;;;;;2.97;1.05;;;19.70;90.10;;;;;;4954348;29;20037;-79
2021/07/06 06:05:07;;;;;;;2.08;1.10;;;19.70;90.00;;;;;;4937505;29;20115;-80
2021/07/06 06:07:38;;;;;;;2.30;1.25;;;19.80;90.10;;;;;;4937267;29;20476;-80
2021/07/06 06:10:05;;;;;;;2.10;1.10;;;19.90;90.00;;;;;;4954876;29;20023;-80
2021/07/06 06:12:30;;;;;;;1.50;1.00;;;20.00;89.50;;;;;;4935896;29;20044;-80
2021/07/06 06:14:56;;;;;;;3.38;1.10;;;20.00;89.40;;;;;;4934961;29;20044;-80
2021/07/06 06:17:21;;;;;;;4.53;1.10;;;20.10;88.40;;;;;;4935902;29;20080;-80
2021/07/06 06:19:47;;;;;;;3.15;1.02;;;20.20;88.30;;;;;;4935529;29;20028;-80
2021/07/06 06:22:13;;;;;;;4.65;1.13;;;20.30;87.20;;;;;;4935802;29;20118;-80
2021/07/06 06:24:38;;;;;;;1.58;0.80;;;20.50;87.00;;;;;;4936989;29;20090;-80
2021/07/06 06:27:04;;;;;;;1.90;0.88;;;20.60;85.80;;;;;;4938040;29;20035;-80
2021/07/06 06:29:30;;;;;;;3.35;0.95;;;20.70;84.80;;;;;;4937742;29;20122;-80
2021/07/06 06:31:55;;;;;;;3.15;0.82;;;20.70;85.00;;;;;;4953709;29;20035;-79
2021/07/06 06:34:21;;;;;;;1.27;1.10;;;20.70;86.40;;;;;;4937935;29;20039;-79
2021/07/06 06:36:47;;;;;;;4.57;0.80;;;20.70;86.40;;;;;;4921394;29;20118;-77
2021/07/06 06:39:12;;;;;;;2.95;1.35;;;20.70;86.10;;;;;;4939092;29;20024;-78
2021/07/06 06:41:38;;;;;;;2.83;0.80;;;20.70;86.30;;;;;;4953414;29;20031;-77
2021/07/06 06:44:04;;;;;;;2.15;0.95;;;20.80;86.30;;;;;;4936939;29;20031;-77
2021/07/06 06:46:30;;;;;;;3.47;1.20;;;20.90;86.10;;;;;;4954414;29;20035;-77
2021/07/06 06:49:00;;;;;;;3.17;0.80;;;21.00;85.90;;;;;;4952801;29;20037;-77
2021/07/06 06:51:26;;;;;;;3.22;1.00;;;21.10;85.10;;;;;;4953988;29;20465;-76
2021/07/06 06:53:51;;;;;;;2.20;1.00;;;21.20;84.60;;;;;;4954630;28;20032;-77
2021/07/06 06:56:17;;;;;;;4.53;1.00;;;21.30;83.40;;;;;;4940402;29;20038;-77
2021/07/06 06:58:44;;;;;;;2.03;0.93;;;21.30;83.30;;;;;;4956851;29;20110;-77
2021/07/06 07:01:10;;;;;;;2.70;0.98;;;21.30;83.20;;;;;;4940107;29;20388;-77
2021/07/06 07:03:35;;;;;;;2.85;0.82;;;21.40;83.20;;;;;;4939488;29;20089;-76
2021/07/06 07:06:01;;;;;;;4.20;1.00;;;21.40;83.30;;;;;;4957037;29;20027;-74
2021/07/06 07:08:27;;;;;;;4.90;1.17;;;21.60;83.10;;;;;;4939956;29;20031;-72
2021/07/06 07:10:52;;;;;;;2.13;0.80;;;21.60;82.70;;;;;;4954066;29;20035;-75
2021/07/06 07:13:18;;;;;;;1.33;0.93;;;21.70;82.30;;;;;;4950754;29;20504;-72
2021/07/06 07:15:44;;;;;;;2.72;1.20;;;21.80;82.50;;;;;;4954425;28;20030;-73
2021/07/06 07:18:10;;;;;;;2.95;1.00;;;21.80;82.10;;;;;;4953161;29;20027;-72
2021/07/06 07:20:36;;;;;;;4.32;1.10;;;21.80;81.70;;;;;;4947225;29;20531;-72
2021/07/06 07:23:02;;;;;;;3.58;1.15;;;21.80;81.00;;;;;;4923323;29;20082;-74
2021/07/06 07:25:29;;;;;;;1.67;1.02;;;21.90;80.50;;;;;;4936003;29;20027;-74
2021/07/06 07:27:55;;;;;;;1.50;1.00;;;21.80;80.50;;;;;;4923287;29;20023;-73
2021/07/06 07:30:22;;;;;;;2.40;0.82;;;21.80;80.20;;;;;;4949759;29;20034;-73
2021/07/06 07:32:48;;;;;;;2.40;0.73;;;21.80;80.50;;;;;;4929824;29;20123;-73
2021/07/06 07:35:16;;;;;;;6.05;4.15;;;21.80;80.90;;;;;;4944890;29;20469;-72
2021/07/06 07:37:43;;;;;;;4.68;2.45;;;21.80;81.70;;;;;;4953306;29;20027;-72
2021/07/06 07:40:11;;;;;;;3.95;1.50;;;21.80;82.30;;;;;;4951805;28;20102;-72
2021/07/06 07:42:37;;;;;;;1.67;0.98;;;21.80;82.50;;;;;;4937519;29;20039;-72
2021/07/06 07:45:04;;;;;;;2.45;1.05;;;21.80;81.70;;;;;;4955891;29;20031;-75
2021/07/06 07:47:29;;;;;;;3.20;1.00;;;21.80;81.80;;;;;;4938724;29;20127;-74
2021/07/06 07:49:55;;;;;;;1.23;1.10;;;21.70;82.20;;;;;;4955261;29;20119;-74
2021/07/06 07:52:21;;;;;;;1.38;1.10;;;21.70;81.90;;;;;;4938651;29;20031;-74
2021/07/06 07:54:46;;;;;;;2.70;1.20;;;21.60;82.30;;;;;;4954615;29;20042;-74
2021/07/06 07:57:23;;;;;;;7.90;1.35;;;21.70;82.90;;;;;;4955550;29;20074;-72
2021/07/06 07:59:49;;;;;;;1.40;1.00;;;21.60;83.50;;;;;;4954183;29;20155;-73
2021/07/06 08:02:15;;;;;;;2.80;1.27;;;21.70;84.20;;;;;;4937349;29;20126;-72
2021/07/06 08:04:40;;;;;;;3.08;1.48;;;21.70;84.90;;;;;;4936392;28;20118;-72
2021/07/06 08:07:07;;;;;;;2.78;1.35;;;21.70;85.20;;;;;;4935234;29;20118;-72
2021/07/06 08:09:32;;;;;;;2.03;1.45;;;21.70;85.20;;;;;;4951392;29;20038;-76
2021/07/06 08:11:58;;;;;;;1.30;1.10;;;21.70;85.30;;;;;;4933961;29;20019;-76
2021/07/06 08:14:24;;;;;;;2.80;1.02;;;21.80;85.20;;;;;;4937677;29;20082;-73
2021/07/06 08:16:51;;;;;;;3.95;1.60;;;21.80;85.10;;;;;;4954518;29;20027;-74
2021/07/06 08:19:17;;;;;;;2.63;1.10;;;21.70;85.20;;;;;;4924351;29;20024;-75
2021/07/06 08:21:43;;;;;;;2.05;1.10;;;21.70;85.30;;;;;;4927232;29;20457;-74
2021/07/06 08:24:09;;;;;;;1.65;1.20;;;21.70;85.50;;;;;;4938556;29;20480;-73
2021/07/06 08:26:36;;;;;;;1.23;0.90;;;21.70;85.50;;;;;;4950259;29;20042;-76
2021/07/06 08:29:03;;;;;;;2.08;1.00;;;21.70;85.80;;;;;;4954795;29;20492;-74
2021/07/06 08:31:29;;;;;;;2.03;1.17;;;21.60;86.10;;;;;;4955556;29;20114;-76
2021/07/06 08:33:54;;;;;;;1.27;1.10;;;21.60;86.40;;;;;;4933909;29;20246;-76
2021/07/06 08:36:20;;;;;;;3.25;1.42;;;21.60;86.90;;;;;;4947586;29;20102;-75
2021/07/06 08:38:46;;;;;;;6.68;1.48;;;21.50;88.60;;;;;;4933458;29;20034;-75
2021/07/06 08:41:12;;;;;;;2.63;1.55;;;21.40;90.20;;;;;;4926029;29;20158;-75
2021/07/06 08:43:38;;;;;;;2.45;1.27;;;21.30;90.90;;;;;;4951245;29;20051;-74
2021/07/06 08:46:04;;;;;;;2.05;1.30;;;21.20;91.30;;;;;;4940341;29;20102;-74
2021/07/06 08:48:34;;;;;;;2.13;1.40;;;21.10;91.70;;;;;;4929473;29;20461;-75
2021/07/06 08:51:00;;;;;;;3.28;1.38;;;21.00;92.30;;;;;;4946660;29;20031;-74
2021/07/06 08:53:28;;;;;;;4.53;1.65;;;20.90;92.60;;;;;;4954734;29;20035;-75
2021/07/06 08:55:54;;;;;;;3.25;1.30;;;20.80;92.80;;;;;;4935521;29;20020;-76
2021/07/06 08:58:20;;;;;;;2.22;1.08;;;20.80;92.90;;;;;;4942802;29;20558;-76
2021/07/06 09:00:46;;;;;;;3.85;1.27;;;20.70;93.00;;;;;;4927132;29;20028;-76
2021/07/06 09:03:12;;;;;;;1.77;1.40;;;20.70;93.20;;;;;;4949620;29;20031;-76
2021/07/06 09:05:38;;;;;;;4.78;1.20;;;20.70;93.60;;;;;;4936946;29;20031;-75
2021/07/06 09:08:06;;;;;;;2.33;1.17;;;20.60;93.80;;;;;;4935544;29;20067;-74
2021/07/06 09:10:40;;;;;;;2.13;1.10;;;20.60;94.00;;;;;;4955027;29;20030;-75
2021/07/06 09:13:26;;;;;;;2.42;1.00;;;20.60;94.00;;;;;;4937169;29;20388;-75
2021/07/06 09:15:56;;;;;;;1.73;1.00;;;20.50;93.90;;;;;;4954466;29;20063;-76
2021/07/06 09:18:23;;;;;;;3.03;0.90;;;20.50;93.90;;;;;;4930002;29;20027;-77
2021/07/06 09:21:07;;;;;;;1.42;0.90;;;20.40;93.90;;;;;;4929070;29;20027;-80
2021/07/06 09:23:40;;;;;;;1.50;0.88;;;20.40;93.70;;;;;;4938947;29;20038;-76
2021/07/06 09:26:14;;;;;;;1.65;0.95;;;20.30;93.80;;;;;;4932666;29;20464;-76
2021/07/06 09:28:43;;;;;;;1.25;0.80;;;20.40;93.60;;;;;;4927324;29;20417;-77
2021/07/06 09:31:19;;;;;;;1.80;0.82;;;20.40;93.50;;;;;;4926712;29;20032;-77
2021/07/06 09:34:00;;;;;;;0.80;0.60;;;20.40;93.70;;;;;;4937047;29;20106;-77
2021/07/06 09:36:31;;;;;;;1.65;0.60;;;20.40;93.40;;;;;;4949797;29;20082;-75
2021/07/06 09:39:05;;;;;;;2.70;0.75;;;20.30;93.20;;;;;;4925056;29;20027;-76
2021/07/06 09:41:31;;;;;;;2.28;0.70;;;20.40;93.40;;;;;;4950753;29;20536;-76
2021/07/06 09:44:17;;;;;;;1.05;0.77;;;20.40;93.40;;;;;;4938680;29;20082;-76
2021/07/06 09:47:04;;;;;;;1.25;0.65;;;20.40;93.00;;;;;;4944193;29;20035;-76
2021/07/06 09:49:32;;;;;;;1.45;0.70;;;20.50;93.40;;;;;;4951158;29;20063;-75
2021/07/06 09:52:09;;;;;;;1.27;0.70;;;20.60;93.10;;;;;;4951471;29;20055;-77
2021/07/06 09:54:37;;;;;;;1.58;0.90;;;20.50;93.20;;;;;;4951201;29;20035;-77
2021/07/06 09:57:05;;;;;;;1.17;0.88;;;20.40;93.40;;;;;;4936611;29;20059;-76
2021/07/06 09:59:31;;;;;;;2.22;0.80;;;20.30;93.60;;;;;;4933769;29;20138;-77
2021/07/06 10:01:59;;;;;;;1.73;0.70;;;20.30;93.80;;;;;;4934152;29;20086;-76
2021/07/06 10:04:26;;;;;;;1.67;0.80;;;20.20;93.70;;;;;;4946670;29;20051;-77
2021/07/06 10:06:55;;;;;;;2.83;0.80;;;20.20;93.80;;;;;;4948474;29;20034;-74
2021/07/06 10:09:21;;;;;;;2.45;1.27;;;20.20;93.60;;;;;;4938981;29;20042;-74
2021/07/06 10:11:48;;;;;;;1.35;0.80;;;20.20;93.60;;;;;;4949875;29;20027;-74
2021/07/06 10:14:14;;;;;;;1.08;0.98;;;20.20;93.50;;;;;;4928063;29;20031;-75
2021/07/06 10:16:40;;;;;;;1.40;0.73;;;20.20;93.70;;;;;;4943962;29;20038;-77
2021/07/06 10:19:07;;;;;;;2.20;0.98;;;20.20;93.50;;;;;;4941393;29;20477;-77
2021/07/06 10:21:34;;;;;;;1.00;0.80;;;20.10;93.60;;;;;;4950827;29;20498;-76
2021/07/06 10:24:04;;;;;;;1.80;0.70;;;20.10;93.80;;;;;;4932500;29;20476;-76
2021/07/06 10:26:31;;;;;;;1.00;0.50;;;20.20;93.70;;;;;;4925685;29;20031;-76
2021/07/06 10:28:57;;;;;;;2.25;0.70;;;20.20;93.70;;;;;;4942695;29;20035;-75
2021/07/06 10:31:24;;;;;;;1.00;0.77;;;20.20;93.60;;;;;;4953314;29;20027;-74
2021/07/06 10:33:51;;;;;;;1.55;0.70;;;20.20;93.50;;;;;;4941150;29;20472;-74
2021/07/06 10:36:33;;;;;;;0.98;0.50;;;20.20;93.30;;;;;;4940057;29;20027;-76
2021/07/06 10:38:59;;;;;;;;;;;20.30;93.10;;;;;;4944831;29;20183;-76
2021/07/06 10:41:55;;;;;;;1.23;0.70;;;20.30;93.10;;;;;;4953834;29;19969;-74
2021/07/06 10:44:32;;;;;;;2.83;0.70;;;20.30;93.20;;;;;;4932175;29;20052;-77
2021/07/06 10:46:58;;;;;;;1.35;0.40;;;20.30;93.10;;;;;;4932327;29;20427;-76
2021/07/06 10:49:34;;;;;;;0.85;0.55;;;20.30;92.80;;;;;;4924832;29;20123;-77
2021/07/06 10:52:02;;;;;;;3.60;0.80;;;20.30;93.00;;;;;;4924917;29;20023;-77
2021/07/06 10:54:30;;;;;;;0.90;0.40;;;20.30;92.90;;;;;;4949377;29;20036;-76
2021/07/06 10:56:59;;;;;;;0.60;0.40;;;20.30;92.80;;;;;;4931754;29;20027;-75
2021/07/06 10:59:31;;;;;;;0.95;0.50;;;20.30;92.80;;;;;;4957005;29;20043;-76
2021/07/06 11:01:58;;;;;;;;;;;20.30;92.80;;;;;;4941616;29;20027;-76
2021/07/06 11:07:14;;;;;;;3.70;0.40;;;20.30;92.70;;;;;;4954883;29;20027;-76
2021/07/06 11:09:40;;;;;;;1.40;0.40;;;20.40;92.60;;;;;;4923219;29;20024;-76
2021/07/06 11:12:24;;;;;;;0.57;0.40;;;20.60;92.00;;;;;;4951708;29;20058;-74
2021/07/06 11:14:54;;;;;;;0.60;0.50;;;20.80;91.90;;;;;;4947971;29;20121;-75
2021/07/06 11:17:38;;;;;;;0.95;0.50;;;20.90;91.50;;;;;;4939585;29;20035;-74
2021/07/06 11:20:08;;;;;;;1.35;0.40;;;20.90;91.70;;;;;;4932622;29;20117;-73
2021/07/06 11:22:40;;;;;;;1.75;0.47;;;20.80;92.20;;;;;;4950664;28;20016;-75
2021/07/06 11:25:31;;;;;;;0.95;0.50;;;20.70;92.30;;;;;;4943975;29;20030;-76
2021/07/06 11:28:18;;;;;;;1.67;0.50;;;20.60;92.20;;;;;;4940450;29;20042;-75
2021/07/06 11:30:48;;;;;;;1.20;0.40;;;20.50;92.30;;;;;;4946089;29;20477;-75
2021/07/06 11:33:13;;;;;;;0.80;0.50;;;20.40;92.50;;;;;;4951218;29;20031;-75
2021/07/06 11:36:01;;;;;;;1.35;0.40;;;20.30;92.60;;;;;;4945373;29;20027;-77
2021/07/06 11:38:37;;;;;;;1.45;0.57;;;20.30;92.80;;;;;;4931658;29;20028;-75
2021/07/06 11:41:05;;;;;;;0.52;0.30;;;20.20;92.80;;;;;;4948546;28;20086;-76
2021/07/06 11:43:32;;;;;;;0.93;0.47;;;20.20;93.10;;;;;;4940361;29;20073;-77
2021/07/06 11:45:59;;;;;;;1.70;0.52;;;20.30;93.20;;;;;;4938868;29;20026;-76
2021/07/06 11:48:29;;;;;;;1.05;0.30;;;20.20;93.20;;;;;;4949068;29;20055;-78
2021/07/06 11:50:59;;;;;;;1.85;0.60;;;20.10;93.20;;;;;;4930706;29;20280;-82
2021/07/06 11:53:30;;;;;;;2.65;0.75;;;20.10;93.30;;;;;;4924133;29;20032;-76
2021/07/06 11:55:58;;;;;;;1.65;0.40;;;20.00;93.30;;;;;;4940348;29;20360;-79
2021/07/06 11:58:25;;;;;;;0.85;0.40;;;20.00;93.70;;;;;;4953326;29;20170;-76
2021/07/06 12:00:52;;;;;;;1.10;0.60;;;20.00;93.80;;;;;;4927387;29;20032;-75
2021/07/06 12:03:29;;;;;;;1.27;0.85;;;20.00;93.50;;;;;;4951389;29;20110;-76
2021/07/06 12:05:56;;;;;;;3.47;0.65;;;20.00;93.40;;;;;;4950729;29;20102;-75
2021/07/06 12:08:23;;;;;;;1.90;0.50;;;20.00;93.60;;;;;;4937994;29;20027;-76
2021/07/06 12:11:01;;;;;;;1.23;0.63;;;20.00;93.70;;;;;;4935572;29;20472;-76
2021/07/06 12:13:29;;;;;;;1.25;0.60;;;20.00;94.00;;;;;;4955383;29;20375;-77
2021/07/06 12:16:01;;;;;;;1.25;0.70;;;19.90;94.10;;;;;;4950411;29;20020;-74
2021/07/06 12:18:27;;;;;;;1.58;0.80;;;19.90;94.40;;;;;;4952524;29;20031;-75
2021/07/06 12:20:58;;;;;;;1.08;0.40;;;19.90;94.50;;;;;;4951935;29;20323;-75
2021/07/06 12:23:25;;;;;;;2.97;0.75;;;19.90;94.30;;;;;;4955657;29;20032;-75
2021/07/06 12:25:54;;;;;;;1.75;0.70;;;19.90;94.20;;;;;;4949212;29;20068;-74
2021/07/06 12:28:20;;;;;;;2.67;0.60;;;19.90;94.20;;;;;;4954239;29;20113;-75
2021/07/06 12:31:21;;;;;;;2.67;1.17;;;19.90;94.20;;;;;;4954339;29;20031;-74
2021/07/06 12:34:06;;;;;;;0.75;0.40;;;19.80;94.30;;;;;;4938870;29;20035;-75
2021/07/06 12:36:39;;;;;;;1.15;0.60;;;19.70;94.10;;;;;;4938092;29;20086;-75
2021/07/06 12:39:07;;;;;;;1.77;0.55;;;19.70;94.40;;;;;;4925081;29;20536;-75
2021/07/06 12:41:39;;;;;;;0.98;0.70;;;19.70;94.30;;;;;;4952091;29;20042;-75
2021/07/06 12:44:05;;;;;;;1.85;0.57;;;19.70;94.40;;;;;;4935709;29;20551;-75
2021/07/06 12:46:31;;;;;;;1.90;0.55;;;19.70;94.30;;;;;;4937377;29;20027;-75
2021/07/06 12:48:59;;;;;;;1.58;0.70;;;19.70;94.30;;;;;;4953576;29;20093;-75
2021/07/06 12:51:25;;;;;;;0.75;0.40;;;19.70;93.90;;;;;;4954518;28;20074;-74
2021/07/06 12:54:03;;;;;;;0.70;0.45;;;19.80;94.00;;;;;;4953806;29;20035;-75